createdAt,value
2019-04-07T00:01:56.013Z,14.00
2019-04-07T00:04:47.665Z,14.07
2019-04-07T00:07:39.069Z,13.67
2019-04-07T00:10:29.642Z,14.07
2019-04-07T00:13:25.894Z,14.53
2019-04-07T00:16:17.012Z,14.40
2019-04-07T00:19:08.174Z,14.67
2019-04-07T00:22:07.781Z,15.00
2019-04-07T00:24:59.566Z,14.97
2019-04-07T00:27:50.638Z,18.50
2019-04-07T00:30:42.518Z,15.53
2019-04-07T00:33:33.875Z,15.97
2019-04-07T00:36:25.376Z,14.03
2019-04-07T00:39:21.249Z,14.53
2019-04-07T00:42:14.774Z,14.60
2019-04-07T00:45:10.058Z,15.33
2019-04-07T00:48:01.424Z,15.60
2019-04-07T00:50:53.820Z,13.90
2019-04-07T00:53:45.474Z,14.70
2019-04-07T00:56:35.881Z,14.63
2019-04-07T00:59:26.427Z,15.80
2019-04-07T01:02:17.848Z,16.00
2019-04-07T01:05:09.499Z,14.03
2019-04-07T01:08:00.609Z,16.90
2019-04-07T01:10:52.496Z,14.90
2019-04-07T01:13:43.126Z,14.50
2019-04-07T01:16:34.141Z,15.43
2019-04-07T01:19:39.750Z,14.80
2019-04-07T01:22:30.934Z,16.30
2019-04-07T01:25:25.614Z,15.43
2019-04-07T01:28:35.395Z,14.30
2019-04-07T01:31:25.487Z,15.47
2019-04-07T01:34:15.968Z,14.90
2019-04-07T01:37:08.742Z,14.27
2019-04-07T01:40:00.247Z,14.20
2019-04-07T01:43:16.240Z,16.23
2019-04-07T01:46:31.727Z,16.00
2019-04-07T01:49:40.414Z,16.43
2019-04-07T01:52:55.644Z,15.50
2019-04-07T01:56:11.753Z,20.30
2019-04-07T01:59:12.180Z,20.73
2019-04-07T02:02:41.289Z,18.67
2019-04-07T02:05:58.699Z,21.93
2019-04-07T02:09:14.168Z,18.73
2019-04-07T02:12:12.571Z,19.80
2019-04-07T02:15:19.759Z,17.87
2019-04-07T02:18:24.745Z,22.90
2019-04-07T02:21:24.924Z,24.73
2019-04-07T02:24:23.478Z,30.13
2019-04-07T02:27:21.395Z,27.73
2019-04-07T02:30:29.744Z,32.50
2019-04-07T02:33:42.456Z,27.00
2019-04-07T02:36:56.752Z,30.60
2019-04-07T02:39:54.875Z,25.27
2019-04-07T02:43:03.031Z,27.70
2019-04-07T02:46:18.511Z,24.90
2019-04-07T02:49:17.893Z,26.83
2019-04-07T02:52:30.303Z,20.47
2019-04-07T02:55:48.808Z,24.73
2019-04-07T02:59:04.662Z,22.30
2019-04-07T03:02:12.119Z,23.33
2019-04-07T03:05:29.683Z,24.03
2019-04-07T03:08:39.653Z,19.27
2019-04-07T03:11:42.929Z,17.93
2019-04-07T03:14:45.642Z,16.80
2019-04-07T03:17:43.412Z,17.40
2019-04-07T03:21:01.171Z,16.47
2019-04-07T03:24:28.883Z,18.20
2019-04-07T03:27:38.345Z,16.13
2019-04-07T03:30:47.970Z,16.30
2019-04-07T03:33:48.118Z,14.20
2019-04-07T03:37:19.268Z,15.53
2019-04-07T03:40:02.599Z,14.30
2019-04-07T03:42:57.915Z,14.23
2019-04-07T03:46:03.690Z,12.67
2019-04-07T03:49:20.041Z,13.97
2019-04-07T03:52:28.771Z,13.17
2019-04-07T03:55:32.297Z,12.97
2019-04-07T03:59:01.123Z,13.23
2019-04-07T04:02:10.020Z,13.03
2019-04-07T04:05:20.747Z,13.47
2019-04-07T04:08:18.340Z,12.80
2019-04-07T04:11:29.319Z,13.23
2019-04-07T04:14:27.514Z,12.40
2019-04-07T04:17:19.402Z,14.40
2019-04-07T04:20:10.697Z,14.07
2019-04-07T04:23:01.518Z,14.00
2019-04-07T04:25:53.685Z,14.67
2019-04-07T04:28:45.115Z,17.50
2019-04-07T04:31:37.092Z,14.47
2019-04-07T04:34:28.481Z,14.07
2019-04-07T04:37:34.256Z,14.03
2019-04-07T04:40:12.481Z,18.00
2019-04-07T04:43:03.640Z,16.83
2019-04-07T04:45:54.791Z,14.50
2019-04-07T04:48:45.660Z,14.73
2019-04-07T04:51:39.261Z,17.13
2019-04-07T04:54:29.114Z,15.97
2019-04-07T04:57:19.914Z,13.27
2019-04-07T05:00:12.242Z,13.00
2019-04-07T05:03:02.813Z,13.20
2019-04-07T05:05:54.579Z,13.80
2019-04-07T05:08:45.615Z,15.17
2019-04-07T05:11:37.099Z,13.43
2019-04-07T05:14:28.496Z,14.77
2019-04-07T05:17:18.925Z,15.87
2019-04-07T05:20:10.229Z,13.93
2019-04-07T05:23:04.075Z,14.30
2019-04-07T05:25:55.712Z,14.27
2019-04-07T05:28:47.157Z,14.37
2019-04-07T05:31:38.703Z,13.77
2019-04-07T05:34:30.350Z,13.97
2019-04-07T05:37:22.010Z,13.47
2019-04-07T05:40:14.066Z,13.43
2019-04-07T05:43:04.762Z,14.67
2019-04-07T05:45:56.375Z,13.03
2019-04-07T05:48:47.569Z,16.13
2019-04-07T05:51:39.321Z,12.17
2019-04-07T05:54:30.626Z,13.20
2019-04-07T05:57:25.070Z,13.73
2019-04-07T06:00:16.985Z,13.80
2019-04-07T06:03:09.303Z,13.40
2019-04-07T06:06:00.457Z,13.23
2019-04-07T06:08:50.988Z,13.30
2019-04-07T06:11:42.319Z,13.13
2019-04-07T06:14:33.491Z,13.30
2019-04-07T06:17:26.345Z,13.50
2019-04-07T06:20:18.060Z,12.93
2019-04-07T06:23:10.478Z,17.53
2019-04-07T06:26:00.964Z,13.97
2019-04-07T06:28:57.013Z,13.40
2019-04-07T06:31:44.754Z,13.20
2019-04-07T06:34:35.363Z,13.20
2019-04-07T06:37:29.399Z,13.50
2019-04-07T06:40:22.254Z,12.07
2019-04-07T06:43:14.570Z,11.90
2019-04-07T06:46:33.304Z,12.47
2019-04-07T06:49:29.904Z,12.20
2019-04-07T06:52:47.698Z,12.13
2019-04-07T06:56:03.047Z,12.20
2019-04-07T06:59:01.628Z,12.57
2019-04-07T07:02:10.660Z,13.03
2019-04-07T07:05:20.019Z,12.13
2019-04-07T07:08:24.646Z,11.27
2019-04-07T07:11:29.289Z,12.07
2019-04-07T07:14:47.343Z,12.00
2019-04-07T07:18:09.020Z,11.70
2019-04-07T07:21:05.091Z,11.13
2019-04-07T07:23:55.796Z,11.53
2019-04-07T07:26:47.901Z,11.70
2019-04-07T07:29:39.808Z,11.90
2019-04-07T07:32:36.995Z,11.60
2019-04-07T07:35:27.351Z,11.63
2019-04-07T07:38:21.490Z,11.40
2019-04-07T07:41:12.586Z,11.67
2019-04-07T07:44:06.440Z,11.70
2019-04-07T07:46:57.025Z,11.80
2019-04-07T07:49:50.996Z,11.10
2019-04-07T07:52:44.341Z,11.17
2019-04-07T07:55:37.633Z,10.63
2019-04-07T07:58:32.491Z,10.77
2019-04-07T08:01:23.532Z,11.30
2019-04-07T08:04:19.450Z,11.50
2019-04-07T08:07:13.537Z,11.17
2019-04-07T08:10:04.017Z,11.10
2019-04-07T08:12:56.265Z,10.53
2019-04-07T08:15:47.646Z,11.57
2019-04-07T08:18:42.754Z,10.93
2019-04-07T08:21:31.638Z,10.57
2019-04-07T08:24:23.291Z,11.00
2019-04-07T08:27:14.979Z,10.90
2019-04-07T08:30:11.845Z,11.00
2019-04-07T08:33:01.284Z,10.60
2019-04-07T08:35:55.277Z,11.43
2019-04-07T08:38:46.672Z,10.67
2019-04-07T08:41:40.643Z,11.10
2019-04-07T08:44:31.507Z,11.50
2019-04-07T08:47:23.446Z,12.47
2019-04-07T08:50:15.169Z,10.90
2019-04-07T08:53:05.673Z,11.10
2019-04-07T08:55:57.193Z,10.70
2019-04-07T08:58:49.072Z,11.33
2019-04-07T09:01:40.491Z,12.30
2019-04-07T09:04:31.997Z,12.37
2019-04-07T09:07:24.489Z,12.40
2019-04-07T09:10:22.594Z,12.90
2019-04-07T09:13:13.468Z,11.90
2019-04-07T09:16:23.605Z,12.97
2019-04-07T09:19:28.824Z,12.83
2019-04-07T09:22:42.030Z,13.50
2019-04-07T09:25:50.219Z,12.80
2019-04-07T09:29:18.028Z,13.03
2019-04-07T09:32:37.574Z,12.40
2019-04-07T09:35:49.790Z,12.33
2019-04-07T09:39:09.678Z,12.40
2019-04-07T09:42:18.742Z,14.20
2019-04-07T09:45:27.639Z,11.87
2019-04-07T09:48:48.804Z,12.00
2019-04-07T09:51:45.257Z,11.97
2019-04-07T09:54:43.889Z,11.37
2019-04-07T09:57:53.872Z,11.53
2019-04-07T10:00:57.707Z,11.77
2019-04-07T10:03:58.972Z,12.60
2019-04-07T10:07:15.022Z,12.63
2019-04-07T10:10:19.120Z,11.97
2019-04-07T10:13:26.373Z,12.53
2019-04-07T10:16:35.091Z,12.10
2019-04-07T10:19:44.622Z,11.40
2019-04-07T10:22:55.295Z,12.20
2019-04-07T10:26:11.814Z,12.03
2019-04-07T10:29:17.687Z,11.90
2019-04-07T10:32:37.413Z,11.33
2019-04-07T10:35:49.737Z,11.83
2019-04-07T10:38:47.997Z,12.13
2019-04-07T10:42:09.497Z,11.60
2019-04-07T10:45:43.875Z,12.50
2019-04-07T10:48:41.009Z,13.00
2019-04-07T10:51:51.273Z,11.80
2019-04-07T10:54:48.427Z,11.87
2019-04-07T10:57:58.438Z,11.90
2019-04-07T11:01:14.491Z,13.30
2019-04-07T11:04:19.218Z,12.30
2019-04-07T11:07:34.696Z,13.20
2019-04-07T11:10:44.182Z,12.47
2019-04-07T11:14:00.948Z,12.03
2019-04-07T11:17:06.824Z,13.00
2019-04-07T11:20:23.686Z,11.80
2019-04-07T11:23:24.147Z,12.93
2019-04-07T11:26:40.357Z,16.33
2019-04-07T11:29:46.437Z,13.37
2019-04-07T11:32:47.811Z,13.00
2019-04-07T11:35:44.351Z,14.27
2019-04-07T11:38:48.463Z,13.90
2019-04-07T11:42:01.801Z,14.10
2019-04-07T11:45:13.871Z,15.03
2019-04-07T11:48:30.223Z,12.77
2019-04-07T11:51:36.856Z,13.60
2019-04-07T11:54:49.376Z,25.33
2019-04-07T11:57:46.174Z,14.37
2019-04-07T12:00:59.282Z,14.00
2019-04-07T12:04:27.266Z,14.23
2019-04-07T12:07:35.582Z,13.93
2019-04-07T12:10:56.183Z,13.30
2019-04-07T12:13:44.895Z,13.77
2019-04-07T12:16:53.485Z,14.00
2019-04-07T12:20:01.577Z,13.57
2019-04-07T12:22:59.305Z,16.60
2019-04-07T12:26:18.153Z,14.43
2019-04-07T12:29:36.955Z,14.13
2019-04-07T12:32:41.448Z,14.27
2019-04-07T12:35:37.851Z,13.63
2019-04-07T12:38:43.227Z,13.77
2019-04-07T12:41:54.145Z,14.40
2019-04-07T12:45:12.436Z,13.40
2019-04-07T12:48:21.198Z,14.40
2019-04-07T12:51:30.779Z,16.10
2019-04-07T12:54:53.602Z,14.10
2019-04-07T12:57:52.070Z,13.50
2019-04-07T13:01:15.280Z,13.80
2019-04-07T13:04:11.165Z,14.63
2019-04-07T13:07:33.561Z,15.30
2019-04-07T13:10:38.852Z,15.00
2019-04-07T13:13:50.596Z,13.33
2019-04-07T13:17:01.691Z,17.10
2019-04-07T13:20:18.092Z,15.07
2019-04-07T13:23:31.621Z,13.77
2019-04-07T13:26:44.484Z,16.00
2019-04-07T13:29:42.027Z,15.50
2019-04-07T13:32:52.404Z,17.40
2019-04-07T13:36:10.392Z,14.70
2019-04-07T13:39:26.024Z,15.37
2019-04-07T13:42:38.971Z,14.50
2019-04-07T13:45:50.576Z,13.90
2019-04-07T13:49:04.394Z,15.37
2019-04-07T13:52:17.868Z,14.30
2019-04-07T13:55:17.145Z,14.10
2019-04-07T13:58:31.690Z,14.40
2019-04-07T14:01:29.326Z,15.00
2019-04-07T14:04:36.073Z,13.83
2019-04-07T14:07:51.650Z,13.87
2019-04-07T14:11:10.124Z,13.93
2019-04-07T14:14:22.281Z,14.90
2019-04-07T14:17:37.392Z,13.43
2019-04-07T14:20:54.166Z,13.73
2019-04-07T14:24:04.752Z,14.57
2019-04-07T14:27:07.512Z,13.00
2019-04-07T14:30:29.159Z,14.63
2019-04-07T14:33:38.217Z,13.63
2019-04-07T14:36:46.700Z,13.87
2019-04-07T14:39:43.396Z,12.47
2019-04-07T14:43:01.053Z,14.23
2019-04-07T14:46:16.163Z,14.23
2019-04-07T14:49:26.694Z,14.00
2019-04-07T14:52:48.268Z,13.63
2019-04-07T14:55:52.088Z,13.20
2019-04-07T14:59:06.584Z,13.27
2019-04-07T15:02:00.494Z,14.50
2019-04-07T15:04:57.070Z,14.33
2019-04-07T15:07:59.622Z,13.20
2019-04-07T15:10:53.044Z,14.97
2019-04-07T15:13:45.498Z,13.80
2019-04-07T15:16:39.733Z,13.70
2019-04-07T15:19:31.031Z,13.23
2019-04-07T15:22:25.877Z,13.73
2019-04-07T15:25:13.334Z,13.47
2019-04-07T15:28:04.339Z,14.10
2019-04-07T15:30:56.740Z,14.20
2019-04-07T15:33:47.886Z,14.10
2019-04-07T15:36:38.668Z,15.60
2019-04-07T15:39:30.282Z,15.43
2019-04-07T15:42:33.124Z,15.60
2019-04-07T15:45:15.139Z,17.80
2019-04-07T15:48:07.125Z,15.43
2019-04-07T15:51:03.142Z,15.63
2019-04-07T15:53:52.002Z,15.37
2019-04-07T15:57:02.506Z,16.90
2019-04-07T15:59:54.086Z,17.20
2019-04-07T16:02:46.116Z,15.57
2019-04-07T16:05:42.426Z,16.07
2019-04-07T16:08:30.843Z,16.10
2019-04-07T16:11:24.712Z,16.00
2019-04-07T16:14:15.903Z,15.63
2019-04-07T16:17:10.593Z,18.70
2019-04-07T16:20:00.517Z,16.83
2019-04-07T16:22:51.870Z,15.23
2019-04-07T16:25:44.282Z,16.20
2019-04-07T16:28:35.193Z,15.43
2019-04-07T16:31:27.158Z,15.83
2019-04-07T16:34:19.177Z,16.43
2019-04-07T16:37:11.963Z,17.40
2019-04-07T16:40:06.271Z,19.07
2019-04-07T16:43:07.691Z,17.33
2019-04-07T16:45:48.543Z,17.23
2019-04-07T16:48:43.098Z,18.37
2019-04-07T16:51:35.125Z,16.97
2019-04-07T16:54:26.608Z,17.37
2019-04-07T16:57:18.619Z,18.70
2019-04-07T17:00:15.267Z,18.03
2019-04-07T17:03:18.949Z,16.97
2019-04-07T17:06:11.989Z,21.83
2019-04-07T17:09:06.544Z,16.90
2019-04-07T17:12:00.275Z,19.00
2019-04-07T17:14:52.104Z,18.07
2019-04-07T17:17:43.744Z,17.67
2019-04-07T17:20:37.682Z,17.33
2019-04-07T17:23:27.212Z,16.57
2019-04-07T17:26:18.217Z,16.67
2019-04-07T17:29:09.177Z,17.00
2019-04-07T17:32:03.643Z,16.87
2019-04-07T17:34:55.165Z,17.60
2019-04-07T17:37:47.326Z,21.23
2019-04-07T17:40:49.230Z,17.20
2019-04-07T17:44:00.850Z,20.97
2019-04-07T17:47:14.661Z,18.83
2019-04-07T17:50:21.395Z,20.17
2019-04-07T17:53:47.559Z,18.50
2019-04-07T17:56:48.139Z,18.60
2019-04-07T17:59:58.280Z,17.17
2019-04-07T18:03:11.908Z,16.77
2019-04-07T18:06:24.981Z,15.27
2019-04-07T18:09:39.501Z,20.67
2019-04-07T18:12:45.545Z,20.03
2019-04-07T18:15:52.525Z,17.90
2019-04-07T18:19:05.971Z,18.33
2019-04-07T18:22:23.530Z,15.93
2019-04-07T18:25:38.797Z,15.90
2019-04-07T18:28:44.361Z,16.30
2019-04-07T18:32:03.987Z,16.50
2019-04-07T18:35:08.309Z,16.67
2019-04-07T18:38:17.344Z,17.30
2019-04-07T18:41:28.797Z,20.40
2019-04-07T18:44:42.612Z,24.60
2019-04-07T18:48:05.343Z,19.30
2019-04-07T18:51:15.952Z,20.00
2019-04-07T18:54:35.502Z,18.10
2019-04-07T18:57:46.190Z,24.20
2019-04-07T19:01:04.185Z,21.20
2019-04-07T19:04:02.395Z,18.30
2019-04-07T19:07:18.515Z,18.60
2019-04-07T19:10:32.343Z,18.43
2019-04-07T19:13:39.280Z,18.67
2019-04-07T19:16:41.872Z,20.37
2019-04-07T19:19:58.098Z,18.87
2019-04-07T19:22:58.915Z,17.40
2019-04-07T19:26:01.336Z,17.30
2019-04-07T19:29:10.631Z,16.57
2019-04-07T19:32:20.100Z,19.40
2019-04-07T19:35:23.533Z,18.03
2019-04-07T19:38:29.956Z,16.60
2019-04-07T19:41:45.715Z,17.63
2019-04-07T19:44:51.080Z,17.23
2019-04-07T19:48:07.103Z,21.10
2019-04-07T19:51:22.694Z,17.30
2019-04-07T19:54:33.485Z,19.70
2019-04-07T19:57:44.837Z,17.80
2019-04-07T20:00:54.286Z,17.63
2019-04-07T20:04:00.522Z,16.93
2019-04-07T20:07:11.981Z,24.30
2019-04-07T20:10:34.529Z,18.20
2019-04-07T20:13:46.793Z,21.33
2019-04-07T20:16:57.773Z,17.90
2019-04-07T20:20:17.437Z,19.00
2019-04-07T20:23:28.517Z,16.40
2019-04-07T20:26:26.668Z,16.43
2019-04-07T20:29:22.484Z,16.37
2019-04-07T20:32:23.343Z,16.30
2019-04-07T20:35:35.013Z,15.80
2019-04-07T20:38:58.026Z,17.83
2019-04-07T20:42:03.963Z,18.47
2019-04-07T20:45:13.654Z,16.73
2019-04-07T20:48:08.183Z,16.00
2019-04-07T20:51:24.220Z,17.03
2019-04-07T20:54:35.149Z,16.67
2019-04-07T20:57:54.014Z,16.73
2019-04-07T21:01:16.328Z,18.20
2019-04-07T21:04:21.820Z,16.23
2019-04-07T21:07:18.535Z,19.50
2019-04-07T21:10:29.556Z,16.40
2019-04-07T21:13:43.094Z,17.57
2019-04-07T21:17:09.479Z,16.30
2019-04-07T21:20:14.561Z,16.00
2019-04-07T21:23:14.092Z,16.70
2019-04-07T21:26:27.201Z,17.90
2019-04-07T21:29:24.768Z,17.23
2019-04-07T21:32:37.311Z,17.37
2019-04-07T21:35:36.986Z,18.87
2019-04-07T21:38:39.167Z,17.80
2019-04-07T21:41:45.163Z,17.07
2019-04-07T21:44:42.811Z,17.30
2019-04-07T21:47:46.114Z,17.90
2019-04-07T21:51:02.348Z,19.20
2019-04-07T21:54:04.024Z,19.17
2019-04-07T21:57:20.128Z,17.17
2019-04-07T22:00:46.247Z,19.70
2019-04-07T22:04:02.931Z,18.57
2019-04-07T22:07:11.812Z,19.40
2019-04-07T22:10:05.252Z,19.20
2019-04-07T22:13:00.253Z,18.10
2019-04-07T22:15:55.629Z,17.90
2019-04-07T22:18:40.692Z,19.83
2019-04-07T22:21:31.999Z,17.93
2019-04-07T22:24:23.360Z,16.30
2019-04-07T22:27:17.565Z,18.03
2019-04-07T22:30:09.887Z,19.63
2019-04-07T22:33:01.896Z,17.60
2019-04-07T22:35:53.950Z,17.40
2019-04-07T22:38:44.653Z,17.13
2019-04-07T22:41:39.078Z,17.53
2019-04-07T22:44:27.933Z,18.07
2019-04-07T22:47:19.768Z,16.97
2019-04-07T22:50:10.790Z,18.03
2019-04-07T22:53:01.689Z,16.20
2019-04-07T22:55:52.723Z,15.43
2019-04-07T22:58:44.474Z,15.40
2019-04-07T23:01:36.221Z,16.23
2019-04-07T23:04:27.925Z,15.07
2019-04-07T23:07:18.492Z,15.20
2019-04-07T23:10:09.141Z,15.63
2019-04-07T23:12:59.901Z,14.50
2019-04-07T23:15:51.072Z,18.40
2019-04-07T23:18:42.405Z,14.80
2019-04-07T23:21:34.121Z,14.63
2019-04-07T23:24:24.901Z,14.80
2019-04-07T23:27:16.255Z,16.07
2019-04-07T23:30:08.938Z,15.17
2019-04-07T23:33:00.051Z,14.27
2019-04-07T23:35:50.349Z,15.00
2019-04-07T23:38:41.627Z,14.87
2019-04-07T23:41:32.912Z,15.53
2019-04-07T23:44:24.128Z,14.20
2019-04-07T23:47:15.273Z,14.67
2019-04-07T23:50:07.900Z,14.20
2019-04-07T23:53:21.743Z,15.10
2019-04-07T23:56:12.302Z,14.20
2019-04-07T23:59:03.858Z,13.40
